Time;durP1;ratioP1;P1;durP2;ratioP2;P2;SDS_P1;SDS_P2;PMS_P1;PMS_P2;Temp;Humidity;BMP_temperature;BMP_pressure;BME280_temperature;BME280_humidity;BME280_pressure;Samples;Min_cycle;Max_cycle;Signal;HPM_P1;HPM_P2
2022/11/27 00:00:54;;;;;;;19.83;13.27;;;;;;;5.51;76.73;101957.38;4210420;28;20071;-63
2022/11/27 00:02:57;;;;;;;20.23;13.57;;;;;;;5.50;76.89;101954.69;4204839;28;20079;-64
2022/11/27 00:05:00;;;;;;;25.02;15.85;;;;;;;5.49;76.73;101951.25;4211206;28;20040;-63
2022/11/27 00:07:03;;;;;;;28.48;15.35;;;;;;;5.48;76.72;101944.28;4215299;28;20052;-63
2022/11/27 00:09:15;;;;;;;20.30;14.65;;;;;;;5.48;76.55;101946.88;4204082;28;20035;-64
2022/11/27 00:11:21;;;;;;;20.48;13.77;;;;;;;5.47;76.37;101939.91;4214440;28;20051;-63
2022/11/27 00:13:24;;;;;;;23.15;14.18;;;;;;;5.46;76.42;101934.69;4203872;28;20040;-63
2022/11/27 00:15:27;;;;;;;17.25;14.00;;;;;;;5.45;76.53;101933.81;4208168;28;20085;-63
2022/11/27 00:17:30;;;;;;;17.33;14.00;;;;;;;5.41;76.39;101935.28;4214987;28;20051;-63
2022/11/27 00:19:32;;;;;;;19.65;14.85;;;;;;;5.41;76.74;101929.25;4206996;28;20101;-63
2022/11/27 00:21:37;;;;;;;18.02;14.07;;;;;;;5.39;76.60;101920.56;4207227;28;20032;-63
2022/11/27 00:23:43;;;;;;;19.23;13.70;;;;;;;5.37;76.45;101922.13;4197601;28;20036;-63
2022/11/27 00:25:53;;;;;;;30.08;14.65;;;;;;;5.35;76.37;101918.59;4215576;28;20549;-63
2022/11/27 00:27:57;;;;;;;30.05;14.65;;;;;;;5.31;76.30;101914.03;4198466;28;20387;-63
2022/11/27 00:30:01;;;;;;;17.77;13.40;;;;;;;5.28;76.70;101908.72;4204293;28;20062;-63
2022/11/27 00:32:06;;;;;;;17.05;12.93;;;;;;;5.23;76.67;101903.28;4207335;28;20545;-63
2022/11/27 00:34:10;;;;;;;18.10;13.82;;;;;;;5.24;76.78;101900.78;4208755;28;20039;-64
2022/11/27 00:36:14;;;;;;;18.30;13.88;;;;;;;5.19;77.21;101898.75;4197640;28;20506;-63
2022/11/27 00:38:19;;;;;;;19.40;14.32;;;;;;;5.17;77.10;101897.75;4212320;28;20028;-63
2022/11/27 00:40:22;;;;;;;24.13;15.75;;;;;;;5.15;76.65;101884.75;4210921;28;20542;-64
2022/11/27 00:42:24;;;;;;;17.50;13.77;;;;;;;5.11;76.79;101887.97;4214097;28;20040;-63
2022/11/27 00:44:33;;;;;;;16.80;12.27;;;;;;;5.10;76.94;101885.31;4211951;28;20116;-63
2022/11/27 00:46:36;;;;;;;18.08;12.38;;;;;;;5.07;76.98;101878.28;4213151;28;20544;-63
2022/11/27 00:48:39;;;;;;;22.13;14.65;;;;;;;5.04;76.93;101878.97;4199310;28;20082;-64
2022/11/27 00:50:42;;;;;;;19.98;14.40;;;;;;;5.03;76.49;101886.63;4208671;28;20033;-63
2022/11/27 00:52:45;;;;;;;26.65;14.60;;;;;;;4.96;76.77;101881.91;4210608;28;20101;-63
2022/11/27 00:54:53;;;;;;;21.35;13.07;;;;;;;4.87;76.78;101880.53;4183346;28;20048;-63
2022/11/27 00:56:56;;;;;;;19.20;13.10;;;;;;;4.89;76.87;101889.28;4198092;28;20448;-64
2022/11/27 00:59:00;;;;;;;22.10;13.00;;;;;;;4.89;76.96;101883.19;4198613;28;20040;-63
2022/11/27 01:01:06;;;;;;;33.97;14.32;;;;;;;4.93;77.22;101881.72;4212430;28;20437;-63
2022/11/27 01:03:09;;;;;;;33.20;15.43;;;;;;;4.88;77.05;101884.03;4203828;28;20045;-63
2022/11/27 01:05:12;;;;;;;85.20;16.40;;;;;;;4.86;77.50;101881.34;4197177;28;20033;-63
2022/11/27 01:07:15;;;;;;;75.35;15.55;;;;;;;4.77;77.70;101882.47;4196806;28;20516;-63
2022/11/27 01:09:18;;;;;;;104.53;17.05;;;;;;;4.74;78.05;101885.75;4204097;28;20457;-63
2022/11/27 01:11:24;;;;;;;64.88;18.17;;;;;;;4.75;78.27;101887.53;4213294;28;20036;-63
2022/11/27 01:13:29;;;;;;;143.73;22.98;;;;;;;4.79;78.32;101879.22;4195624;28;20138;-63
2022/11/27 01:15:32;;;;;;;61.15;16.67;;;;;;;4.82;78.15;101874.22;4213900;28;20305;-63
2022/11/27 01:17:36;;;;;;;30.60;15.93;;;;;;;4.81;78.21;101874.13;4213927;28;20042;-64
2022/11/27 01:19:39;;;;;;;23.00;14.95;;;;;;;4.80;78.39;101874.94;4206143;28;20394;-63
2022/11/27 01:21:42;;;;;;;32.17;14.57;;;;;;;4.76;78.44;101873.88;4209712;28;20389;-63
2022/11/27 01:23:45;;;;;;;61.83;16.10;;;;;;;4.72;78.61;101877.06;4211449;28;20082;-63
2022/11/27 01:25:48;;;;;;;26.58;13.30;;;;;;;4.65;78.58;101869.75;4200666;28;20044;-63
2022/11/27 01:27:51;;;;;;;47.33;15.57;;;;;;;4.67;78.49;101879.34;4202924;28;20049;-63
2022/11/27 01:29:55;;;;;;;49.88;14.52;;;;;;;4.68;78.51;101872.50;4187963;28;20050;-63
2022/11/27 01:31:58;;;;;;;85.68;15.85;;;;;;;4.66;78.51;101866.38;4212194;28;20047;-63
2022/11/27 01:34:08;;;;;;;136.25;19.27;;;;;;;4.70;78.47;101868.31;4198851;28;20045;-63
2022/11/27 01:36:13;;;;;;;16.50;12.25;;;;;;;4.68;78.54;101870.81;4213334;28;20515;-63
2022/11/27 01:38:16;;;;;;;28.00;13.48;;;;;;;4.68;78.90;101869.94;4213393;28;20043;-63
2022/11/27 01:40:19;;;;;;;22.48;13.35;;;;;;;4.65;79.12;101859.44;4211247;28;20032;-64
2022/11/27 01:42:22;;;;;;;50.03;17.33;;;;;;;4.67;78.94;101863.00;4213292;28;20036;-63
2022/11/27 01:44:51;;;;;;;57.65;15.80;;;;;;;4.72;78.42;101854.75;4212798;28;20524;-63
2022/11/27 01:46:58;;;;;;;85.03;17.85;;;;;;;4.66;78.32;101856.97;4201063;28;20032;-63
2022/11/27 01:49:20;;;;;;;22.67;14.73;;;;;;;4.62;78.37;101854.97;4209727;28;20046;-63
2022/11/27 01:51:24;;;;;;;18.80;12.77;;;;;;;4.62;78.47;101864.41;4207552;28;20044;-63
2022/11/27 01:53:27;;;;;;;17.92;12.05;;;;;;;4.58;78.59;101853.00;4206242;28;20040;-63
2022/11/27 01:55:34;;;;;;;35.08;14.30;;;;;;;4.60;78.63;101861.75;4211201;28;20046;-63
2022/11/27 01:57:43;;;;;;;17.77;12.55;;;;;;;4.61;78.65;101860.91;4212516;28;20044;-63
2022/11/27 01:59:48;;;;;;;21.92;12.43;;;;;;;4.55;78.63;101856.28;4213774;28;20408;-63
2022/11/27 02:01:51;;;;;;;29.52;13.35;;;;;;;4.48;78.66;101867.03;4213804;28;20036;-63
2022/11/27 02:03:57;;;;;;;15.25;11.60;;;;;;;4.49;78.50;101866.22;4210594;28;20044;-63
2022/11/27 02:06:01;;;;;;;16.55;12.50;;;;;;;4.53;78.56;101859.59;4213490;28;20044;-63
2022/11/27 02:08:12;;;;;;;30.05;12.80;;;;;;;4.52;78.43;101861.25;4212673;28;20044;-63
2022/11/27 02:10:16;;;;;;;21.80;12.55;;;;;;;4.42;78.68;101866.63;4212516;28;20048;-63
2022/11/27 02:12:24;;;;;;;56.80;14.88;;;;;;;4.37;78.52;101868.03;4213945;28;20046;-63
2022/11/27 02:14:34;;;;;;;24.73;13.57;;;;;;;4.30;79.03;101855.59;4206557;28;20486;-63
2022/11/27 02:16:43;;;;;;;27.00;14.40;;;;;;;4.30;79.33;101855.59;4211352;28;20082;-64
2022/11/27 02:18:56;;;;;;;35.80;12.38;;;;;;;4.22;79.07;101851.63;4195199;28;20072;-63
2022/11/27 02:21:06;;;;;;;47.80;15.85;;;;;;;4.19;79.60;101850.66;4197069;28;20084;-63
2022/11/27 02:23:33;;;;;;;24.75;13.55;;;;;;;4.17;79.35;101848.78;4196037;28;20517;-63
2022/11/27 02:25:49;;;;;;;23.70;13.90;;;;;;;4.17;79.59;101853.91;4203578;28;20044;-63
2022/11/27 02:28:16;;;;;;;89.72;20.08;;;;;;;4.05;80.00;101848.91;4205098;28;20040;-63
2022/11/27 02:30:20;;;;;;;21.00;13.43;;;;;;;4.10;80.27;101855.22;4212990;28;20063;-64
2022/11/27 02:32:27;;;;;;;30.88;13.32;;;;;;;4.10;80.00;101859.47;4196936;28;20090;-63
2022/11/27 02:34:36;;;;;;;21.08;12.13;;;;;;;4.05;80.05;101861.75;4203377;28;20036;-63
2022/11/27 02:36:43;;;;;;;34.70;14.73;;;;;;;4.02;80.18;101867.59;4207527;28;20509;-64
2022/11/27 02:38:51;;;;;;;23.20;13.80;;;;;;;4.02;79.66;101864.16;4212910;28;20046;-63
2022/11/27 02:40:59;;;;;;;18.25;12.00;;;;;;;4.02;79.96;101872.75;4216578;28;20044;-63
2022/11/27 02:43:06;;;;;;;25.52;14.40;;;;;;;3.96;79.28;101869.78;4210150;28;20052;-63
2022/11/27 02:45:13;;;;;;;17.30;12.57;;;;;;;3.93;80.09;101878.97;4213863;28;20052;-63
2022/11/27 02:47:18;;;;;;;24.02;14.63;;;;;;;3.97;79.67;101869.00;4212030;28;20044;-63
2022/11/27 02:49:22;;;;;;;22.80;12.43;;;;;;;4.04;79.50;101859.09;4216500;28;20043;-63
2022/11/27 02:51:29;;;;;;;24.98;16.85;;;;;;;4.10;79.07;101855.22;4205831;28;20055;-63
2022/11/27 02:53:45;;;;;;;30.38;16.30;;;;;;;4.12;79.20;101851.06;4200354;28;20060;-63
2022/11/27 02:55:50;;;;;;;53.40;18.13;;;;;;;4.17;79.24;101844.50;4213210;28;20094;-63
2022/11/27 02:57:56;;;;;;;20.35;13.75;;;;;;;4.17;79.04;101844.50;4215718;28;20039;-63
2022/11/27 03:00:01;;;;;;;31.85;14.48;;;;;;;4.16;79.05;101845.31;4198278;28;20460;-63
2022/11/27 03:02:11;;;;;;;31.05;15.40;;;;;;;4.17;79.03;101839.34;4216078;28;20047;-63
2022/11/27 03:04:20;;;;;;;16.80;12.85;;;;;;;4.17;78.91;101831.63;4214257;28;20060;-63
2022/11/27 03:06:27;;;;;;;37.83;15.77;;;;;;;4.19;79.21;101827.50;4214347;28;20032;-63
2022/11/27 03:08:37;;;;;;;27.92;15.65;;;;;;;4.21;79.09;101819.88;4202211;28;20040;-63
2022/11/27 03:10:46;;;;;;;16.60;12.85;;;;;;;4.22;78.91;101820.75;4216145;28;20457;-63
2022/11/27 03:12:50;;;;;;;23.27;14.68;;;;;;;4.18;78.43;101820.56;4214549;28;20036;-63
2022/11/27 03:14:53;;;;;;;16.65;12.90;;;;;;;4.21;78.42;101819.00;4204036;28;20499;-63
2022/11/27 03:17:03;;;;;;;16.98;13.82;;;;;;;4.24;78.57;101819.19;4207301;28;20044;-64
2022/11/27 03:19:15;;;;;;;17.35;12.73;;;;;;;4.27;78.32;101819.34;4205491;28;20139;-64
2022/11/27 03:21:28;;;;;;;19.92;13.60;;;;;;;4.28;78.06;101823.69;4215150;28;20081;-63
2022/11/27 03:23:31;;;;;;;22.92;14.20;;;;;;;4.28;78.02;101823.69;4201251;28;20484;-63
2022/11/27 03:25:34;;;;;;;22.10;13.32;;;;;;;4.26;78.20;101820.16;4210859;28;20036;-63
2022/11/27 03:27:43;;;;;;;17.52;12.80;;;;;;;4.22;78.12;101820.75;4213580;28;20043;-63
2022/11/27 03:29:49;;;;;;;15.32;11.93;;;;;;;4.15;78.46;101819.50;4211810;28;20040;-63
2022/11/27 03:31:52;;;;;;;15.00;11.90;;;;;;;4.15;78.35;101814.34;4205901;28;20494;-63
2022/11/27 03:33:55;;;;;;;16.55;13.20;;;;;;;4.22;78.40;101810.44;4212144;28;20093;-63
2022/11/27 03:35:58;;;;;;;18.13;13.93;;;;;;;4.23;78.13;101807.09;4198364;28;20094;-63
2022/11/27 03:38:03;;;;;;;48.00;12.63;;;;;;;4.21;78.09;101804.41;4205136;28;20063;-63
2022/11/27 03:40:08;;;;;;;21.98;13.10;;;;;;;4.15;77.85;101799.78;4208178;28;20044;-63
2022/11/27 03:42:18;;;;;;;44.50;12.23;;;;;;;3.95;77.74;101810.53;4214419;28;20055;-63
2022/11/27 03:44:30;;;;;;;19.45;11.90;;;;;;;3.88;78.31;101808.34;4196777;28;20037;-64
2022/11/27 03:46:46;;;;;;;14.60;11.65;;;;;;;3.88;78.17;101805.78;4210874;28;20040;-63
2022/11/27 03:48:58;;;;;;;20.77;12.10;;;;;;;3.81;78.91;101802.81;4186515;28;20041;-62
2022/11/27 03:51:11;;;;;;;16.52;11.35;;;;;;;3.87;78.42;101798.84;4194983;28;20044;-63
2022/11/27 03:53:21;;;;;;;26.58;13.45;;;;;;;3.91;78.73;101805.97;4201684;28;20078;-63
2022/11/27 03:55:36;;;;;;;16.83;13.18;;;;;;;3.91;78.18;101800.81;4198070;28;20036;-63
2022/11/27 03:57:45;;;;;;;17.48;12.55;;;;;;;3.87;78.08;101798.84;4213085;28;20132;-63
2022/11/27 03:59:54;;;;;;;30.95;12.32;;;;;;;3.78;78.08;101812.94;4209679;28;20040;-63
2022/11/27 04:01:57;;;;;;;18.05;12.15;;;;;;;3.71;77.88;101815.91;4207639;28;20036;-63
2022/11/27 04:04:00;;;;;;;13.07;10.38;;;;;;;3.66;78.28;101812.13;4214569;28;20532;-63
2022/11/27 04:06:03;;;;;;;20.98;11.93;;;;;;;3.71;77.96;101809.84;4207866;28;20186;-63
2022/11/27 04:08:06;;;;;;;17.70;11.25;;;;;;;3.72;77.81;101806.50;4200146;28;20040;-63
2022/11/27 04:10:11;;;;;;;15.05;11.43;;;;;;;3.75;77.93;101793.81;4213363;28;20044;-63
2022/11/27 04:12:14;;;;;;;14.23;11.50;;;;;;;3.72;77.62;101797.06;4213491;28;20032;-63
2022/11/27 04:14:17;;;;;;;12.35;10.10;;;;;;;3.64;77.72;101799.16;4208820;28;20533;-64
2022/11/27 04:16:20;;;;;;;15.25;11.60;;;;;;;3.65;77.16;101805.19;4208164;28;20119;-63
2022/11/27 04:18:23;;;;;;;13.68;11.18;;;;;;;3.66;77.21;101797.59;4209623;28;20413;-63
2022/11/27 04:20:25;;;;;;;15.38;10.23;;;;;;;3.68;77.52;101795.13;4213957;28;20622;-63
2022/11/27 04:22:28;;;;;;;14.10;10.73;;;;;;;3.70;77.44;101793.53;4215245;28;20043;-63
2022/11/27 04:24:31;;;;;;;17.92;11.60;;;;;;;3.59;77.34;101800.56;4224576;28;20044;-63
2022/11/27 04:26:35;;;;;;;16.83;10.48;;;;;;;3.58;77.58;101796.22;4213762;28;20044;-63
2022/11/27 04:28:38;;;;;;;14.18;11.20;;;;;;;3.53;77.32;101804.41;4214236;28;20032;-63
2022/11/27 04:30:41;;;;;;;18.88;11.93;;;;;;;3.57;77.85;101809.84;4215090;28;20459;-63
2022/11/27 04:32:44;;;;;;;16.13;10.65;;;;;;;3.42;78.04;101804.63;4215142;28;20051;-63
2022/11/27 04:34:47;;;;;;;70.30;13.38;;;;;;;3.33;77.88;101798.88;4212729;28;20047;-63
2022/11/27 04:36:50;;;;;;;18.85;12.35;;;;;;;3.19;78.12;101787.69;4206646;28;20051;-63
2022/11/27 04:38:53;;;;;;;31.17;11.82;;;;;;;3.19;78.92;101787.69;4213924;28;20039;-63
2022/11/27 04:40:56;;;;;;;17.90;10.65;;;;;;;3.22;78.56;101779.31;4213855;28;20093;-63
2022/11/27 04:43:00;;;;;;;16.08;10.95;;;;;;;3.24;79.00;101770.91;4206762;28;20041;-63
2022/11/27 04:45:04;;;;;;;19.63;13.32;;;;;;;3.27;78.91;101771.09;4202788;28;20032;-63
2022/11/27 04:47:07;;;;;;;34.60;14.70;;;;;;;3.29;78.43;101776.34;4211881;28;20051;-63
2022/11/27 04:49:10;;;;;;;24.65;12.68;;;;;;;3.26;78.60;101765.88;4213395;28;20051;-63
2022/11/27 04:51:13;;;;;;;51.20;13.35;;;;;;;3.26;77.97;101771.88;4210117;28;20036;-63
2022/11/27 04:53:16;;;;;;;31.95;12.57;;;;;;;3.34;77.92;101767.22;4206604;28;20512;-63
2022/11/27 04:55:19;;;;;;;21.77;13.77;;;;;;;3.39;77.93;101777.81;4209497;28;20044;-63
2022/11/27 04:57:24;;;;;;;16.52;12.60;;;;;;;3.42;77.93;101773.78;4203524;28;20040;-63
2022/11/27 04:59:29;;;;;;;16.70;11.63;;;;;;;3.49;77.73;101775.94;4197892;28;20106;-63
2022/11/27 05:01:32;;;;;;;18.70;14.10;;;;;;;3.43;77.56;101770.41;4198552;28;20408;-63
2022/11/27 05:03:35;;;;;;;17.75;13.38;;;;;;;3.48;77.41;101773.28;4206171;28;20456;-63
2022/11/27 05:05:38;;;;;;;19.45;13.13;;;;;;;3.41;77.32;101773.66;4211844;28;20278;-63
2022/11/27 05:07:41;;;;;;;16.15;12.15;;;;;;;3.41;77.93;101774.56;4212194;28;20054;-63
2022/11/27 05:09:44;;;;;;;19.55;12.80;;;;;;;3.45;77.72;101766.25;4197218;28;20107;-63
2022/11/27 05:11:47;;;;;;;22.42;13.48;;;;;;;3.49;77.48;101778.50;4197400;28;20472;-63
2022/11/27 05:14:13;;;;;;;41.30;14.77;;;;;;;3.58;76.71;101767.06;4211206;28;20048;-63
2022/11/27 05:16:14;;;;;;;16.38;12.65;;;;;;;3.55;76.80;101764.25;4211212;28;20499;-63
2022/11/27 05:18:16;;;;;;;19.92;13.50;;;;;;;3.51;76.70;101764.88;4229123;28;20130;-63
2022/11/27 05:20:19;;;;;;;16.63;13.27;;;;;;;3.52;77.46;101764.06;4229348;28;20039;-63
2022/11/27 05:22:22;;;;;;;21.88;14.93;;;;;;;3.52;77.25;101761.50;4213080;28;20048;-63
2022/11/27 05:24:28;;;;;;;18.65;13.98;;;;;;;3.54;77.41;101765.06;4210889;28;20508;-63
2022/11/27 05:26:31;;;;;;;17.65;12.98;;;;;;;3.55;77.79;101766.81;4213552;28;20036;-63
2022/11/27 05:28:34;;;;;;;44.15;14.90;;;;;;;3.59;77.37;101762.00;4209474;28;20421;-63
2022/11/27 05:30:36;;;;;;;28.35;13.20;;;;;;;3.49;77.44;101764.78;4211103;28;20832;-63
2022/11/27 05:32:41;;;;;;;14.90;11.82;;;;;;;3.46;77.67;101767.13;4208268;28;20036;-63
2022/11/27 05:34:43;;;;;;;18.17;13.50;;;;;;;3.48;77.88;101763.88;4211884;28;20508;-63
2022/11/27 05:36:47;;;;;;;18.80;12.25;;;;;;;3.50;77.91;101761.41;4212436;28;20497;-63
2022/11/27 05:38:49;;;;;;;14.02;11.65;;;;;;;3.44;77.54;101763.59;4203525;28;20536;-63
2022/11/27 05:40:52;;;;;;;27.55;12.52;;;;;;;3.53;77.86;101763.28;4204638;28;20040;-63
2022/11/27 05:42:55;;;;;;;44.25;13.00;;;;;;;3.39;77.41;101768.44;4201699;28;20078;-63
2022/11/27 05:44:58;;;;;;;18.98;13.95;;;;;;;3.27;77.88;101762.47;4207224;28;20135;-63
2022/11/27 05:47:01;;;;;;;16.95;12.43;;;;;;;3.28;77.87;101754.00;4211896;28;20036;-63
2022/11/27 05:49:05;;;;;;;18.15;13.07;;;;;;;3.30;78.39;101757.53;4213921;28;20039;-63
2022/11/27 05:51:09;;;;;;;17.90;12.65;;;;;;;3.31;78.47;101752.53;4203166;28;20102;-63
2022/11/27 05:53:11;;;;;;;15.02;10.45;;;;;;;3.36;78.53;101754.47;4203359;28;20085;-63
2022/11/27 05:55:14;;;;;;;17.48;12.80;;;;;;;3.41;78.53;101753.09;4208192;28;20038;-63
2022/11/27 05:57:17;;;;;;;25.42;13.70;;;;;;;3.45;78.21;101752.53;4212854;28;20040;-63
2022/11/27 05:59:20;;;;;;;17.92;12.18;;;;;;;3.36;78.00;101754.47;4206744;28;20082;-63
2022/11/27 06:01:23;;;;;;;24.65;13.88;;;;;;;3.20;77.94;101750.03;4197181;28;20548;-63
2022/11/27 06:03:26;;;;;;;20.60;12.98;;;;;;;3.28;78.21;101754.00;4204891;28;20039;-63
2022/11/27 06:05:31;;;;;;;18.30;12.55;;;;;;;3.28;78.00;101751.41;4213044;28;20040;-63
2022/11/27 06:07:33;;;;;;;17.52;12.55;;;;;;;3.28;78.62;101751.41;4213788;28;20032;-63
2022/11/27 06:09:37;;;;;;;16.23;11.77;;;;;;;3.38;78.44;101748.66;4203588;28;20500;-63
2022/11/27 06:11:40;;;;;;;15.60;11.30;;;;;;;3.31;78.70;101751.63;4197074;28;20094;-63
2022/11/27 06:13:44;;;;;;;16.60;10.90;;;;;;;3.29;78.13;101753.22;4204915;28;20032;-63
2022/11/27 06:15:47;;;;;;;20.00;10.40;;;;;;;3.00;78.37;101756.47;4215785;28;20040;-63
2022/11/27 06:17:50;;;;;;;16.20;11.20;;;;;;;3.00;79.15;101747.06;4215091;28;20044;-63
2022/11/27 06:19:53;;;;;;;13.50;9.77;;;;;;;3.11;78.97;101743.53;4210341;28;20036;-63
2022/11/27 06:21:57;;;;;;;14.82;9.90;;;;;;;3.18;78.75;101739.66;4209345;28;20032;-63
2022/11/27 06:24:01;;;;;;;17.92;10.52;;;;;;;3.12;78.72;101732.44;4210012;28;20040;-64
2022/11/27 06:26:12;;;;;;;16.00;10.77;;;;;;;3.07;79.43;101736.41;4215694;28;20040;-64
2022/11/27 06:28:15;;;;;;;17.83;10.80;;;;;;;3.19;79.21;101733.72;4200389;28;20033;-64
2022/11/27 06:30:18;;;;;;;15.88;9.95;;;;;;;3.25;79.46;101728.09;4210387;28;20044;-65
2022/11/27 06:32:21;;;;;;;18.40;11.90;;;;;;;3.35;79.22;101722.75;4212976;28;20036;-65
2022/11/27 06:34:24;;;;;;;17.88;12.35;;;;;;;3.44;79.17;101725.91;4216029;28;20097;-65
2022/11/27 06:36:28;;;;;;;18.25;11.18;;;;;;;3.58;78.82;101715.63;4215655;28;20040;-65
2022/11/27 06:38:34;;;;;;;15.90;10.93;;;;;;;3.59;78.49;101725.09;4214930;28;20044;-65
2022/11/27 06:40:36;;;;;;;16.15;11.98;;;;;;;3.67;78.40;101714.50;4207126;28;20540;-65
2022/11/27 06:42:39;;;;;;;16.80;10.82;;;;;;;3.74;77.92;101720.94;4213682;28;20489;-63
2022/11/27 06:44:42;;;;;;;23.23;12.45;;;;;;;3.91;76.73;101715.94;4214390;28;20036;-64
2022/11/27 06:46:45;;;;;;;18.35;12.70;;;;;;;3.77;76.67;101718.53;4202790;28;20343;-61
2022/11/27 06:48:50;;;;;;;15.15;10.93;;;;;;;3.66;77.23;101714.41;4208649;28;20098;-61
2022/11/27 06:50:53;;;;;;;17.13;11.35;;;;;;;3.67;77.35;101706.78;4205311;28;20039;-61
2022/11/27 06:52:56;;;;;;;18.02;12.55;;;;;;;3.61;77.46;101703.84;4213712;28;20122;-62
2022/11/27 06:55:00;;;;;;;21.17;11.85;;;;;;;3.62;78.20;101707.28;4201516;28;20082;-66
2022/11/27 06:57:04;;;;;;;16.38;10.45;;;;;;;3.49;77.95;101727.09;4214884;28;20044;-61
2022/11/27 06:59:06;;;;;;;16.27;11.05;;;;;;;3.39;78.25;101735.03;4201442;28;20041;-62
2022/11/27 07:01:12;;;;;;;18.70;12.85;;;;;;;3.35;78.71;101727.91;4213684;28;20048;-63
2022/11/27 07:03:15;;;;;;;17.00;10.68;;;;;;;3.43;78.92;101715.53;4214816;28;20044;-61
2022/11/27 07:05:18;;;;;;;20.33;11.70;;;;;;;3.47;79.09;101713.25;4211006;28;20092;-61
2022/11/27 07:07:21;;;;;;;16.98;11.55;;;;;;;3.58;79.11;101695.94;4210202;28;20102;-61
2022/11/27 07:09:24;;;;;;;16.77;10.85;;;;;;;3.65;78.61;101695.53;4206403;28;20639;-60
2022/11/27 07:11:30;;;;;;;15.88;11.32;;;;;;;3.70;78.77;101695.81;4208667;28;20383;-60
2022/11/27 07:13:33;;;;;;;18.15;11.65;;;;;;;3.79;78.49;101680.06;4195076;28;20537;-61
2022/11/27 07:15:36;;;;;;;17.25;11.98;;;;;;;3.83;78.21;101682.91;4207489;28;20036;-61
2022/11/27 07:17:40;;;;;;;17.75;12.18;;;;;;;3.89;78.68;101677.25;4209912;28;20042;-61
2022/11/27 07:19:43;;;;;;;16.85;11.32;;;;;;;3.97;77.68;101678.59;4210504;28;20047;-61
2022/11/27 07:21:45;;;;;;;17.38;11.45;;;;;;;3.93;77.32;101678.31;4210768;28;20040;-61
2022/11/27 07:23:48;;;;;;;17.10;11.23;;;;;;;3.82;77.57;101683.69;4202966;28;20040;-61
2022/11/27 07:25:51;;;;;;;17.77;11.95;;;;;;;3.66;77.56;101680.97;4209429;28;20070;-60
2022/11/27 07:28:37;;;;;;;19.88;12.05;;;;;;;4.69;82.44;101675.94;4197909;28;20032;-63
2022/11/27 07:30:39;;;;;;;16.77;11.48;;;;;;;4.85;78.76;101663.13;4209408;28;20052;-63
2022/11/27 07:32:42;;;;;;;17.88;12.10;;;;;;;4.61;77.22;101666.88;4212920;28;20086;-63
2022/11/27 07:34:45;;;;;;;16.67;11.23;;;;;;;4.46;76.95;101660.03;4214753;28;20444;-63
2022/11/27 07:36:48;;;;;;;13.48;9.95;;;;;;;4.32;77.29;101671.19;4213579;28;20528;-63
2022/11/27 07:38:51;;;;;;;15.38;10.73;;;;;;;4.19;77.29;101678.22;4207223;28;20044;-63
2022/11/27 07:40:54;;;;;;;13.85;10.13;;;;;;;4.06;76.98;101692.81;4208210;28;20097;-63
2022/11/27 07:42:58;;;;;;;19.20;11.70;;;;;;;3.93;77.52;101698.88;4215267;28;20047;-63
2022/11/27 07:45:03;;;;;;;16.73;10.82;;;;;;;3.82;77.96;101706.84;4214199;28;20109;-63
2022/11/27 07:47:06;;;;;;;18.58;12.20;;;;;;;3.76;78.29;101705.59;4211478;28;20040;-63
2022/11/27 07:49:08;;;;;;;18.52;11.82;;;;;;;3.69;78.55;101709.44;4212743;28;20062;-63
2022/11/27 07:51:13;;;;;;;18.23;11.55;;;;;;;3.69;78.47;101700.84;4190661;28;20050;-63
2022/11/27 07:53:16;;;;;;;21.45;12.70;;;;;;;3.71;78.76;101692.44;4210895;28;20110;-63
2022/11/27 07:55:19;;;;;;;16.75;12.63;;;;;;;3.78;78.59;101674.03;4203688;28;20044;-63
2022/11/27 07:57:22;;;;;;;21.38;13.23;;;;;;;3.87;78.36;101672.78;4212486;28;20040;-63
2022/11/27 07:59:25;;;;;;;20.75;13.25;;;;;;;4.14;77.63;101664.16;4207834;28;20037;-63
2022/11/27 08:01:29;;;;;;;16.20;11.27;;;;;;;4.06;77.00;101667.06;4212916;28;20047;-63
2022/11/27 08:03:32;;;;;;;18.00;12.23;;;;;;;4.00;77.40;101671.06;4210608;28;20051;-63
2022/11/27 08:05:36;;;;;;;16.30;11.95;;;;;;;4.05;77.74;101676.50;4214762;28;20043;-63
2022/11/27 08:07:39;;;;;;;17.98;12.13;;;;;;;4.08;77.58;101668.06;4211186;28;20486;-63
2022/11/27 08:09:42;;;;;;;19.60;12.82;;;;;;;4.13;77.31;101644.41;4204014;28;20397;-63
2022/11/27 08:11:45;;;;;;;21.13;13.38;;;;;;;4.09;77.66;101645.00;4209756;28;20047;-63
2022/11/27 08:13:48;;;;;;;15.98;10.32;;;;;;;4.12;77.54;101644.31;4207703;28;20044;-63
2022/11/27 08:15:51;;;;;;;15.57;10.95;;;;;;;4.16;77.75;101636.84;4207645;28;20040;-63
2022/11/27 08:17:56;;;;;;;16.13;11.63;;;;;;;4.19;77.76;101621.59;4212200;28;20527;-63
2022/11/27 08:19:58;;;;;;;15.82;11.70;;;;;;;4.19;77.92;101618.09;4209019;28;20136;-63
2022/11/27 08:22:01;;;;;;;15.80;11.15;;;;;;;4.28;77.28;101610.03;4202102;28;20040;-63
2022/11/27 08:24:05;;;;;;;19.27;12.95;;;;;;;4.26;77.59;101609.94;4212888;28;20097;-63
2022/11/27 08:26:09;;;;;;;19.73;11.32;;;;;;;4.37;77.37;101611.47;4215116;28;20387;-63
2022/11/27 08:28:12;;;;;;;17.50;10.70;;;;;;;4.29;77.20;101615.31;4215164;28;20040;-63
2022/11/27 08:30:15;;;;;;;16.95;11.20;;;;;;;4.32;76.83;101612.91;4212561;28;20036;-63
2022/11/27 08:32:18;;;;;;;15.55;9.88;;;;;;;4.32;77.06;101628.34;4209631;28;20111;-63
2022/11/27 08:34:22;;;;;;;15.93;10.32;;;;;;;4.26;76.91;101627.97;4214383;28;20036;-63
2022/11/27 08:36:26;;;;;;;13.77;10.15;;;;;;;4.31;76.73;101628.25;4208807;28;20043;-63
2022/11/27 08:38:29;;;;;;;18.17;11.73;;;;;;;4.32;76.99;101624.88;4212123;28;20047;-63
2022/11/27 08:40:32;;;;;;;13.98;9.98;;;;;;;4.35;77.25;101618.22;4204118;28;20091;-63
2022/11/27 08:42:34;;;;;;;15.60;9.82;;;;;;;4.39;76.92;101629.56;4212123;28;20545;-63
2022/11/27 08:44:37;;;;;;;15.00;10.90;;;;;;;4.35;76.71;101619.88;4210831;28;20097;-63
2022/11/27 08:46:42;;;;;;;17.85;10.18;;;;;;;4.26;76.86;101622.81;4208404;28;20105;-63
2022/11/27 08:48:45;;;;;;;16.58;11.65;;;;;;;4.30;76.99;101629.06;4208273;28;20052;-63
2022/11/27 08:50:50;;;;;;;15.38;9.80;;;;;;;4.34;77.15;101623.28;4208396;28;20439;-63
2022/11/27 08:52:53;;;;;;;;;;;;;;;4.27;77.30;101624.59;4199422;28;20051;-63
2022/11/27 08:54:56;;;;;;;15.45;10.88;;;;;;;4.29;76.88;101630.75;4201400;28;20426;-64
2022/11/27 08:56:59;;;;;;;15.82;11.25;;;;;;;4.32;76.94;101625.78;4213169;28;20048;-63
2022/11/27 08:59:03;;;;;;;16.40;10.85;;;;;;;4.34;77.22;101625.88;4203782;28;20044;-63
2022/11/27 09:01:10;;;;;;;18.63;10.73;;;;;;;4.23;77.36;101632.06;4213921;28;20065;-64
2022/11/27 09:03:21;;;;;;;14.80;10.57;;;;;;;4.15;77.96;101632.50;4213417;28;20044;-64
2022/11/27 09:05:24;;;;;;;18.75;11.68;;;;;;;4.11;77.42;101627.97;4211363;28;20085;-63
2022/11/27 09:07:28;;;;;;;15.63;10.38;;;;;;;4.28;77.76;101625.47;4209889;28;20040;-64
2022/11/27 09:09:31;;;;;;;15.35;10.95;;;;;;;4.40;77.46;101613.34;4206280;28;20032;-64
2022/11/27 09:11:35;;;;;;;15.60;11.20;;;;;;;4.52;77.11;101605.44;4206174;28;20038;-64
2022/11/27 09:13:39;;;;;;;19.52;12.32;;;;;;;4.58;77.15;101607.47;4204070;28;20508;-64
2022/11/27 09:15:42;;;;;;;18.27;13.03;;;;;;;4.61;77.02;101605.94;4204455;28;20067;-64
2022/11/27 09:17:45;;;;;;;21.10;11.20;;;;;;;4.67;76.99;101602.81;4205610;28;20056;-64
2022/11/27 09:19:48;;;;;;;19.30;14.10;;;;;;;4.75;76.64;101599.00;4212491;28;20139;-64
2022/11/27 09:21:50;;;;;;;19.98;13.55;;;;;;;4.84;76.25;101599.50;4212010;28;20051;-63
2022/11/27 09:23:56;;;;;;;17.05;11.88;;;;;;;4.90;76.49;101605.00;4201236;28;20037;-64
2022/11/27 09:25:59;;;;;;;18.08;13.23;;;;;;;4.96;76.84;101596.72;4203660;28;20043;-63
2022/11/27 09:28:02;;;;;;;20.35;12.35;;;;;;;4.98;77.09;101595.13;4214142;28;20435;-64
2022/11/27 09:30:07;;;;;;;18.63;12.68;;;;;;;4.99;76.60;101591.75;4212218;28;20409;-64
2022/11/27 09:32:10;;;;;;;16.48;10.98;;;;;;;5.00;76.42;101590.06;4206604;28;20427;-63
2022/11/27 09:34:13;;;;;;;15.95;9.90;;;;;;;4.85;76.35;101601.28;4209587;28;20036;-63